Time;durP1;ratioP1;P1;durP2;ratioP2;P2;SDS_P1;SDS_P2;PMS_P1;PMS_P2;Temp;Humidity;BMP_temperature;BMP_pressure;BME280_temperature;BME280_humidity;BME280_pressure;Samples;Min_cycle;Max_cycle;Signal;HPM_P1;HPM_P2
2021/10/31 00:02:08;;;;;;;7.90;6.10;;;;;;;10.41;72.97;93877.00;5023094;28;20214;-77
2021/10/31 00:04:34;;;;;;;7.47;6.30;;;;;;;10.34;73.21;93849.22;5009140;28;22132;-78
2021/10/31 00:06:59;;;;;;;7.63;5.83;;;;;;;10.42;72.84;93861.91;5008814;28;20208;-77
2021/10/31 00:09:27;;;;;;;6.97;6.13;;;;;;;10.42;73.28;93870.66;5020824;28;20221;-79
2021/10/31 00:11:52;;;;;;;6.57;5.87;;;;;;;10.56;73.67;93876.22;5008099;28;20658;-78
2021/10/31 00:14:20;;;;;;;6.77;5.73;;;;;;;10.55;73.48;93874.63;5006884;28;20208;-78
2021/10/31 00:16:46;;;;;;;8.30;6.20;;;;;;;10.50;73.33;93874.66;4994596;28;20233;-78
2021/10/31 00:19:14;;;;;;;7.17;6.43;;;;;;;10.50;73.26;93874.66;5021914;28;20234;-78
2021/10/31 00:21:40;;;;;;;6.50;5.83;;;;;;;10.47;73.14;93868.03;5022869;28;21862;-78
2021/10/31 00:24:08;;;;;;;10.37;6.00;;;;;;;10.52;73.05;93859.28;5022568;28;20211;-79
2021/10/31 00:26:34;;;;;;;6.93;6.23;;;;;;;10.50;73.15;93866.69;5023715;28;20622;-78
2021/10/31 00:28:59;;;;;;;8.57;6.10;;;;;;;10.58;73.48;93874.91;5007695;28;20219;-78
2021/10/31 00:31:25;;;;;;;6.63;5.97;;;;;;;10.57;73.37;93865.38;5008003;28;20240;-78
2021/10/31 00:33:51;;;;;;;7.73;5.97;;;;;;;10.47;73.28;93868.03;5009671;28;20215;-78
2021/10/31 00:36:16;;;;;;;11.07;6.20;;;;;;;10.53;73.59;93861.66;5007236;28;20833;-77
2021/10/31 00:38:42;;;;;;;7.13;6.37;;;;;;;10.46;73.23;93870.94;4992663;28;20232;-77
2021/10/31 00:41:07;;;;;;;6.83;6.03;;;;;;;10.42;73.73;93859.25;4990776;28;20749;-77
2021/10/31 00:43:33;;;;;;;9.20;6.67;;;;;;;10.35;73.63;93862.16;5008612;28;20305;-76
2021/10/31 00:46:00;;;;;;;8.00;7.00;;;;;;;10.32;73.33;93868.00;5022010;28;20264;-77
2021/10/31 00:48:26;;;;;;;7.60;6.80;;;;;;;10.49;73.50;93881.00;5008338;28;20221;-78
2021/10/31 00:50:54;;;;;;;7.57;6.37;;;;;;;10.45;73.48;93878.06;5025629;28;20226;-76
2021/10/31 00:53:22;;;;;;;8.23;6.53;;;;;;;10.43;73.69;93868.81;5006508;28;20237;-78
2021/10/31 00:55:47;;;;;;;7.30;6.60;;;;;;;10.37;73.55;93880.47;4993556;28;20208;-77
2021/10/31 00:58:15;;;;;;;7.73;6.87;;;;;;;10.39;73.56;93888.94;5007260;28;20686;-76
2021/10/31 01:00:43;;;;;;;7.50;6.70;;;;;;;10.44;73.34;93881.00;4990459;28;20306;-76
2021/10/31 01:03:09;;;;;;;7.23;6.53;;;;;;;10.53;73.49;93876.78;5022197;28;20203;-77
2021/10/31 01:05:43;;;;;;;7.53;6.73;;;;;;;10.54;73.83;93870.41;5011200;28;20689;-79
2021/10/31 01:08:25;;;;;;;7.27;6.50;;;;;;;10.50;73.54;93882.59;5007737;28;20222;-77
2021/10/31 01:11:10;;;;;;;7.20;6.40;;;;;;;10.45;73.57;93886.03;5020280;28;20705;-77
2021/10/31 01:13:58;;;;;;;10.07;7.33;;;;;;;10.51;73.94;93889.50;5024377;28;20679;-77
2021/10/31 01:16:47;;;;;;;7.70;6.60;;;;;;;10.54;73.79;93878.38;5008680;28;20205;-77
2021/10/31 01:19:50;;;;;;;8.63;6.60;;;;;;;10.64;73.87;93886.31;5023894;28;20616;-77
2021/10/31 01:22:18;;;;;;;7.60;6.80;;;;;;;10.54;73.73;93862.47;5009867;28;20214;-76
2021/10/31 01:24:54;;;;;;;7.43;6.40;;;;;;;10.49;73.41;93860.59;5027639;28;20211;-77
2021/10/31 01:27:33;;;;;;;10.70;6.53;;;;;;;10.50;73.60;93866.69;5024243;28;20245;-77
2021/10/31 01:30:43;;;;;;;6.60;5.90;;;;;;;10.53;73.93;93858.22;5009790;28;20217;-77
2021/10/31 01:33:44;;;;;;;7.20;5.77;;;;;;;10.54;73.83;93865.13;5017904;28;20317;-77
2021/10/31 01:36:38;;;;;;;7.30;6.43;;;;;;;10.54;73.87;93857.16;5010629;28;20216;-78
2021/10/31 01:39:23;;;;;;;6.97;6.10;;;;;;;10.49;74.11;93865.09;5022950;28;20215;-77
2021/10/31 01:42:06;;;;;;;7.33;6.63;;;;;;;10.51;73.79;93860.34;5024865;28;20201;-78
2021/10/31 01:44:48;;;;;;;9.37;6.53;;;;;;;10.29;73.96;93861.38;4991714;28;20255;-78
2021/10/31 01:47:42;;;;;;;9.20;6.73;;;;;;;10.23;73.97;93857.16;5010439;28;20275;-79
2021/10/31 01:50:39;;;;;;;7.50;6.73;;;;;;;10.18;73.95;93851.03;5025535;28;20800;-77
2021/10/31 01:53:13;;;;;;;7.50;6.80;;;;;;;10.08;73.86;93858.91;5008661;28;20247;-77
2021/10/31 01:55:42;;;;;;;7.40;6.70;;;;;;;10.09;73.97;93865.81;5021977;28;20252;-78
2021/10/31 01:58:11;;;;;;;8.20;7.33;;;;;;;9.96;74.27;93856.53;5011378;28;20207;-77
2021/10/31 02:00:42;;;;;;;8.03;6.77;;;;;;;9.96;73.81;93864.47;5007462;28;20252;-77
2021/10/31 02:03:12;;;;;;;7.80;7.03;;;;;;;9.75;74.05;93849.59;5024817;28;20692;-78
2021/10/31 02:05:42;;;;;;;9.03;7.80;;;;;;;9.66;74.04;93838.72;5010524;28;20635;-77
2021/10/31 02:08:12;;;;;;;9.40;8.07;;;;;;;9.63;73.93;93841.88;5010597;28;20216;-77
2021/10/31 02:10:41;;;;;;;7.87;7.07;;;;;;;9.61;74.19;93832.59;4995419;28;20728;-76
2021/10/31 02:13:09;;;;;;;10.33;6.97;;;;;;;9.51;74.30;93840.50;4990981;28;20314;-77
2021/10/31 02:15:35;;;;;;;8.30;7.30;;;;;;;9.42;74.19;93847.34;5025993;28;20241;-77
2021/10/31 02:18:04;;;;;;;8.53;7.03;;;;;;;9.35;74.23;93834.34;5010823;28;20206;-77
2021/10/31 02:20:33;;;;;;;8.90;7.10;;;;;;;9.32;74.28;93847.31;5013491;28;20699;-78
2021/10/31 02:23:03;;;;;;;8.90;6.63;;;;;;;9.24;74.28;93840.66;5024614;28;20761;-77
2021/10/31 02:25:33;;;;;;;9.40;6.87;;;;;;;9.18;74.36;93842.47;5024124;28;20597;-78
2021/10/31 02:27:58;;;;;;;8.53;6.80;;;;;;;9.23;74.00;93829.28;5003743;28;20210;-77
2021/10/31 02:30:26;;;;;;;8.57;6.20;;;;;;;9.32;74.40;93831.44;5009160;28;20229;-77
2021/10/31 02:32:54;;;;;;;7.73;6.10;;;;;;;9.46;74.21;93851.06;5025859;28;20218;-78
2021/10/31 02:35:20;;;;;;;7.97;7.17;;;;;;;9.53;74.54;93836.56;5009971;28;20217;-79
2021/10/31 02:37:48;;;;;;;8.17;6.90;;;;;;;9.54;74.58;93834.69;5023904;28;20217;-78
2021/10/31 02:40:17;;;;;;;7.23;6.53;;;;;;;9.50;74.30;93836.28;5022240;28;20288;-77
2021/10/31 02:42:42;;;;;;;7.27;5.90;;;;;;;9.58;74.26;93827.81;5017575;28;20211;-77
2021/10/31 02:45:10;;;;;;;7.13;6.40;;;;;;;9.64;74.35;93840.81;5008898;28;20567;-77
2021/10/31 02:47:42;;;;;;;6.97;6.27;;;;;;;9.67;74.33;93836.88;5008549;28;20663;-79
2021/10/31 02:50:14;;;;;;;9.70;5.87;;;;;;;9.66;74.54;93838.72;5001314;28;20219;-77
2021/10/31 02:52:58;;;;;;;7.27;5.50;;;;;;;9.69;74.43;93830.25;5002958;28;20214;-77
2021/10/31 02:55:37;;;;;;;7.80;6.13;;;;;;;9.65;74.42;93815.94;5008086;28;20218;-77
2021/10/31 02:58:07;;;;;;;7.10;6.33;;;;;;;9.53;74.58;93796.06;4999625;28;20206;-77
2021/10/31 03:00:36;;;;;;;7.10;6.10;;;;;;;9.51;74.57;93809.56;5024646;28;20218;-78
2021/10/31 03:03:02;;;;;;;7.67;6.30;;;;;;;9.59;74.73;93810.91;5009873;28;20603;-78
2021/10/31 03:05:29;;;;;;;7.13;6.03;;;;;;;9.49;74.79;93789.72;5010282;28;20241;-77
2021/10/31 03:07:56;;;;;;;7.47;6.13;;;;;;;9.49;75.02;93811.66;4992333;28;20761;-78
2021/10/31 03:10:24;;;;;;;7.30;6.30;;;;;;;9.35;74.70;93797.34;5009618;28;20324;-77
2021/10/31 03:12:52;;;;;;;6.43;5.77;;;;;;;9.42;74.85;93794.44;5029063;28;20600;-77
2021/10/31 03:15:18;;;;;;;8.17;6.07;;;;;;;9.33;74.71;93788.88;5012665;28;20209;-77
2021/10/31 03:17:49;;;;;;;6.73;6.13;;;;;;;9.39;74.33;93798.41;5006069;28;20573;-78
2021/10/31 03:20:14;;;;;;;6.50;5.90;;;;;;;9.34;74.57;93782.50;4988732;28;20311;-78
2021/10/31 03:22:40;;;;;;;8.03;5.93;;;;;;;9.32;75.06;93781.19;5008567;28;20642;-77
2021/10/31 03:25:05;;;;;;;6.93;6.23;;;;;;;9.25;74.64;93773.50;5011464;28;20215;-77
2021/10/31 03:27:31;;;;;;;7.53;6.63;;;;;;;9.20;74.55;93761.03;4977153;28;20241;-78
2021/10/31 03:29:57;;;;;;;7.27;6.43;;;;;;;9.20;74.59;93763.69;4993128;28;20224;-78
2021/10/31 03:32:24;;;;;;;6.60;5.90;;;;;;;9.24;74.88;93764.75;5024591;28;20682;-77
2021/10/31 03:34:49;;;;;;;7.63;6.83;;;;;;;9.18;75.41;93754.44;5006283;28;20280;-77
2021/10/31 03:37:15;;;;;;;7.77;6.80;;;;;;;9.19;74.89;93761.31;5004109;28;20205;-77
2021/10/31 03:39:40;;;;;;;7.60;6.77;;;;;;;9.25;74.67;93757.63;5030479;28;20203;-79
2021/10/31 03:42:08;;;;;;;9.17;7.03;;;;;;;9.25;75.21;93753.16;5043936;28;20206;-77
2021/10/31 03:44:37;;;;;;;7.57;6.43;;;;;;;9.21;75.00;93744.13;5044688;28;20213;-77
2021/10/31 03:47:07;;;;;;;8.37;6.47;;;;;;;8.96;75.03;93741.41;5040140;28;20214;-76
2021/10/31 03:49:34;;;;;;;8.33;6.93;;;;;;;8.87;75.13;93745.56;5046139;28;20288;-77
2021/10/31 03:51:59;;;;;;;9.73;6.93;;;;;;;8.80;75.17;93739.72;5038930;28;20213;-79
2021/10/31 03:54:24;;;;;;;7.73;6.93;;;;;;;8.64;75.03;93738.88;5028833;28;20218;-78
2021/10/31 03:56:50;;;;;;;7.90;7.20;;;;;;;8.62;75.14;93745.47;5021308;28;20219;-77
2021/10/31 03:59:15;;;;;;;7.80;6.57;;;;;;;8.41;75.20;93735.81;5012309;28;20220;-76
2021/10/31 04:01:40;;;;;;;9.13;8.00;;;;;;;8.22;74.82;93736.22;5025319;28;20219;-77
2021/10/31 04:04:06;;;;;;;11.43;7.50;;;;;;;8.16;74.87;93736.41;4996413;28;20243;-77
2021/10/31 04:06:34;;;;;;;9.10;7.50;;;;;;;8.11;75.29;93745.09;5008837;28;20228;-77
2021/10/31 04:08:59;;;;;;;7.97;7.17;;;;;;;8.02;74.36;93751.91;4992519;28;20689;-77
2021/10/31 04:11:26;;;;;;;9.27;7.63;;;;;;;7.97;75.18;93743.13;5014875;28;20236;-77
2021/10/31 04:13:52;;;;;;;7.77;6.80;;;;;;;7.90;74.91;93735.41;5013199;28;20228;-76
2021/10/31 04:16:18;;;;;;;10.90;7.80;;;;;;;7.80;74.64;93745.09;5023353;28;21287;-79
2021/10/31 04:18:43;;;;;;;11.17;7.67;;;;;;;7.77;75.20;93733.22;5024135;28;20218;-78
2021/10/31 04:21:08;;;;;;;7.97;7.17;;;;;;;7.67;74.63;93722.56;5021703;28;20266;-77
2021/10/31 04:23:34;;;;;;;7.97;7.00;;;;;;;7.67;74.71;93730.47;5005905;28;20216;-76
2021/10/31 04:25:59;;;;;;;8.17;7.03;;;;;;;7.71;74.82;93734.22;5008498;28;20291;-78
2021/10/31 04:28:27;;;;;;;9.37;7.93;;;;;;;7.55;75.20;93719.31;5022863;28;20224;-78
2021/10/31 04:30:53;;;;;;;10.17;7.70;;;;;;;7.51;74.99;93721.66;5007719;28;20216;-77
2021/10/31 04:33:20;;;;;;;10.90;8.70;;;;;;;7.56;75.51;93713.75;5023184;28;20254;-78
2021/10/31 04:35:48;;;;;;;9.43;7.97;;;;;;;7.49;75.04;93712.38;5005533;28;20554;-78
2021/10/31 04:38:20;;;;;;;9.33;7.70;;;;;;;7.56;75.56;93719.03;5008904;28;20302;-78
2021/10/31 04:40:45;;;;;;;9.20;7.20;;;;;;;7.40;75.00;93703.34;4992206;28;20671;-77
2021/10/31 04:43:11;;;;;;;8.80;7.60;;;;;;;7.29;74.94;93701.63;5003853;28;20220;-78
2021/10/31 04:45:42;;;;;;;9.73;7.90;;;;;;;7.25;75.11;93698.72;5005775;28;20698;-77
2021/10/31 04:48:08;;;;;;;8.23;7.20;;;;;;;7.27;75.53;93698.47;5028754;28;20212;-78
2021/10/31 04:50:34;;;;;;;8.97;7.40;;;;;;;7.20;75.73;93688.91;5007030;28;20204;-77
2021/10/31 04:53:00;;;;;;;8.20;6.30;;;;;;;7.14;75.93;93676.75;5023988;28;20721;-78
2021/10/31 04:55:28;;;;;;;8.30;6.87;;;;;;;7.05;75.82;93682.72;5008746;28;20209;-77
2021/10/31 04:57:56;;;;;;;7.63;6.83;;;;;;;7.02;75.16;93680.53;5027651;28;20307;-78
2021/10/31 05:00:21;;;;;;;9.67;7.53;;;;;;;6.96;75.08;93674.44;5009266;28;20210;-78
2021/10/31 05:02:47;;;;;;;7.93;6.63;;;;;;;6.96;74.99;93671.00;5015129;28;20217;-77
2021/10/31 05:05:12;;;;;;;7.87;6.27;;;;;;;6.88;75.65;93658.28;5007356;28;20229;-78
2021/10/31 05:07:40;;;;;;;8.43;6.87;;;;;;;6.98;75.20;93668.94;5028582;28;20242;-78
2021/10/31 05:10:07;;;;;;;9.27;6.73;;;;;;;6.98;75.38;93675.00;5010926;28;20924;-78
2021/10/31 05:12:38;;;;;;;6.77;5.83;;;;;;;6.96;75.60;93671.81;4993850;28;20308;-78
2021/10/31 05:15:04;;;;;;;6.80;5.53;;;;;;;6.96;75.32;93673.63;5027202;28;20289;-78
2021/10/31 05:17:32;;;;;;;5.80;5.10;;;;;;;7.07;75.42;93670.88;4995224;28;20212;-77
2021/10/31 05:20:00;;;;;;;7.23;5.20;;;;;;;7.30;76.14;93680.31;5004872;28;20213;-77
2021/10/31 05:22:26;;;;;;;6.80;5.60;;;;;;;7.39;75.29;93670.91;5011707;28;20269;-77
2021/10/31 05:24:51;;;;;;;6.03;4.83;;;;;;;7.45;75.83;93671.75;4992335;28;20214;-78
2021/10/31 05:27:19;;;;;;;5.40;4.50;;;;;;;7.47;75.59;93675.72;5009851;28;20215;-77
2021/10/31 05:29:44;;;;;;;4.73;4.20;;;;;;;7.39;76.49;93670.91;4992203;28;20216;-78
2021/10/31 05:32:10;;;;;;;5.40;4.87;;;;;;;7.37;75.60;93674.84;5009453;28;20304;-78
2021/10/31 05:34:36;;;;;;;5.20;4.70;;;;;;;7.30;75.62;93664.50;5008124;28;20223;-79
2021/10/31 05:37:02;;;;;;;5.97;4.90;;;;;;;7.25;75.55;93661.03;5026017;28;20238;-79
2021/10/31 05:39:28;;;;;;;5.67;4.70;;;;;;;7.14;75.74;93663.56;5025117;28;20240;-78
2021/10/31 05:41:56;;;;;;;5.93;4.77;;;;;;;7.05;75.60;93669.53;5008224;28;20251;-78
2021/10/31 05:44:21;;;;;;;5.73;4.70;;;;;;;7.00;75.96;93653.66;5011297;28;20219;-79
2021/10/31 05:46:49;;;;;;;5.07;4.57;;;;;;;7.01;75.91;93650.78;5010388;28;20573;-79
2021/10/31 05:49:14;;;;;;;5.53;4.50;;;;;;;6.92;76.11;93648.81;5026797;28;20244;-79
2021/10/31 05:51:41;;;;;;;5.10;4.43;;;;;;;6.95;76.74;93661.53;5008325;28;21516;-78
2021/10/31 05:54:08;;;;;;;5.10;4.60;;;;;;;6.91;75.80;93661.22;4991906;28;20212;-78
2021/10/31 05:56:33;;;;;;;4.33;3.87;;;;;;;6.86;76.02;93647.19;5026609;28;20220;-79
2021/10/31 05:58:59;;;;;;;5.83;4.90;;;;;;;6.80;75.91;93656.88;5025205;28;20207;-78
2021/10/31 06:01:29;;;;;;;6.87;4.50;;;;;;;6.85;75.73;93650.88;5025737;28;20212;-80
2021/10/31 06:03:57;;;;;;;6.37;5.03;;;;;;;6.77;75.75;93644.22;5024962;28;20212;-77
2021/10/31 06:06:23;;;;;;;8.03;6.03;;;;;;;6.77;76.31;93646.03;5010580;28;20752;-79
2021/10/31 06:08:51;;;;;;;7.20;5.57;;;;;;;6.71;76.23;93645.97;4993216;28;20215;-79
2021/10/31 06:11:17;;;;;;;7.27;6.43;;;;;;;6.72;75.82;93647.56;5024936;28;20220;-79
2021/10/31 06:13:43;;;;;;;7.97;5.80;;;;;;;6.79;75.82;93647.38;5027194;28;20889;-76
2021/10/31 06:16:08;;;;;;;7.20;5.10;;;;;;;6.86;76.52;93655.09;5010882;28;20221;-80
2021/10/31 06:18:37;;;;;;;6.17;5.30;;;;;;;6.95;76.39;93653.63;5024506;28;20222;-77
2021/10/31 06:21:06;;;;;;;5.93;5.33;;;;;;;6.86;75.84;93653.25;5007986;28;20259;-78
2021/10/31 06:23:33;;;;;;;7.87;4.93;;;;;;;6.81;75.75;93647.94;5024328;28;20217;-79
2021/10/31 06:25:58;;;;;;;7.30;5.00;;;;;;;6.87;76.33;93644.31;5008434;28;20216;-79
2021/10/31 06:28:23;;;;;;;5.10;4.33;;;;;;;6.98;75.85;93645.22;5003598;28;20307;-78
2021/10/31 06:30:49;;;;;;;5.67;4.37;;;;;;;7.09;76.48;93650.31;4976087;28;20227;-78
2021/10/31 06:33:14;;;;;;;4.87;4.03;;;;;;;7.29;76.00;93641.81;5007415;28;20217;-78
2021/10/31 06:35:40;;;;;;;4.97;3.60;;;;;;;7.25;76.12;93650.50;5010017;28;20223;-78
2021/10/31 06:38:05;;;;;;;3.57;3.27;;;;;;;7.26;76.07;93644.16;4991941;28;20211;-78
2021/10/31 06:40:30;;;;;;;3.90;3.37;;;;;;;7.40;76.20;93655.88;5021549;28;20227;-78
2021/10/31 06:42:58;;;;;;;3.33;2.87;;;;;;;7.61;76.26;93655.81;5006775;28;20208;-79
2021/10/31 06:45:26;;;;;;;5.90;3.27;;;;;;;7.84;76.09;93659.13;5023857;28;20208;-79
2021/10/31 06:47:54;;;;;;;6.67;3.20;;;;;;;8.11;76.42;93650.09;5008577;28;20221;-80
2021/10/31 06:50:22;;;;;;;6.10;4.03;;;;;;;8.37;76.79;93669.53;5007478;28;20716;-80
2021/10/31 06:52:50;;;;;;;6.83;4.10;;;;;;;9.92;77.01;93725.75;5019252;28;20205;-80
2021/10/31 06:55:16;;;;;;;5.93;3.33;;;;;;;12.16;76.95;93741.41;5020951;28;20223;-80
2021/10/31 06:57:44;;;;;;;6.43;3.40;;;;;;;14.92;76.77;93742.66;5010259;28;20221;-84
2021/10/31 07:00:10;;;;;;;14.23;9.17;;;;;;;16.40;76.65;93681.25;5007513;28;20227;-82
2021/10/31 07:02:35;;;;;;;7.70;5.03;;;;;;;17.42;76.86;93688.19;4995572;28;20348;-83
2021/10/31 07:05:01;;;;;;;5.93;4.83;;;;;;;18.80;76.43;93664.81;4991524;28;20222;-80
2021/10/31 07:07:26;;;;;;;5.20;3.53;;;;;;;19.12;76.35;93617.78;5005982;28;20236;-81
2021/10/31 07:09:51;;;;;;;3.87;3.43;;;;;;;17.86;75.91;93569.19;5023797;28;20245;-79
2021/10/31 07:12:19;;;;;;;2.30;2.10;;;;;;;16.98;75.83;93591.97;5007187;28;20216;-80
2021/10/31 07:14:45;;;;;;;2.23;2.03;;;;;;;17.29;75.33;93651.56;5021691;28;21089;-80
2021/10/31 07:17:13;;;;;;;2.23;2.00;;;;;;;17.64;75.47;93654.34;5023654;28;20219;-80
2021/10/31 07:19:38;;;;;;;2.50;2.30;;;;;;;18.20;75.16;93630.03;5010823;28;20221;-81
2021/10/31 07:22:04;;;;;;;3.97;2.10;;;;;;;18.98;75.19;93675.50;5018489;28;20687;-81
2021/10/31 07:24:34;;;;;;;3.20;2.10;;;;;;;20.20;74.69;93673.38;5022428;28;20273;-82
2021/10/31 07:26:59;;;;;;;1.97;1.87;;;;;;;20.88;74.43;93623.44;4986767;28;20290;-81
2021/10/31 07:29:25;;;;;;;2.60;2.03;;;;;;;22.17;74.32;93672.97;5025129;28;20695;-80
2021/10/31 07:31:53;;;;;;;2.93;2.20;;;;;;;23.21;73.36;93661.88;5018258;28;20219;-80
2021/10/31 07:34:25;;;;;;;2.43;1.80;;;;;;;24.06;73.34;93690.19;5021779;28;20217;-83
2021/10/31 07:36:51;;;;;;;2.37;2.00;;;;;;;24.60;73.25;93606.97;5021900;28;20668;-82
2021/10/31 07:39:17;;;;;;;2.10;1.90;;;;;;;24.13;73.00;93580.13;5025726;28;20212;-83
2021/10/31 07:41:42;;;;;;;2.03;1.93;;;;;;;23.96;72.28;93623.84;5026269;28;20580;-83
2021/10/31 07:44:12;;;;;;;2.13;1.90;;;;;;;24.03;72.06;93602.31;5004764;28;20685;-83
2021/10/31 07:46:38;;;;;;;2.20;2.00;;;;;;;24.71;71.59;93654.00;4992064;28;20689;-83
2021/10/31 07:49:04;;;;;;;2.23;2.10;;;;;;;25.04;71.06;93631.00;5025737;28;20205;-82
2021/10/31 07:51:32;;;;;;;2.37;2.17;;;;;;;24.45;70.92;93597.75;4996392;28;20204;-83
2021/10/31 07:53:57;;;;;;;3.20;2.20;;;;;;;23.35;71.02;93531.59;4991314;28;20243;-83
2021/10/31 07:56:26;;;;;;;3.90;2.53;;;;;;;22.64;70.79;93588.56;4995872;28;20216;-83
2021/10/31 07:58:55;;;;;;;2.70;2.50;;;;;;;23.14;70.25;93604.13;5003870;28;20200;-83
2021/10/31 08:01:23;;;;;;;2.40;2.20;;;;;;;23.45;69.82;93618.44;5022376;28;20337;-83
2021/10/31 08:03:49;;;;;;;2.40;2.20;;;;;;;23.94;69.55;93612.56;5012770;28;20227;-83
2021/10/31 08:06:17;;;;;;;2.60;2.40;;;;;;;23.89;69.03;93591.19;5010907;28;20209;-83
2021/10/31 08:08:45;;;;;;;2.40;2.30;;;;;;;23.77;68.94;93594.03;5004278;28;20408;-82
2021/10/31 08:11:15;;;;;;;3.17;2.50;;;;;;;23.63;68.59;93580.97;5009679;28;20215;-82
2021/10/31 08:13:45;;;;;;;2.23;2.07;;;;;;;24.52;68.18;93616.09;5022689;28;20591;-83
2021/10/31 08:16:10;;;;;;;2.27;2.10;;;;;;;25.82;67.64;93622.19;5011295;28;20207;-82
2021/10/31 08:18:35;;;;;;;2.27;2.07;;;;;;;26.90;67.66;93640.25;5024789;28;20698;-83
2021/10/31 08:21:06;;;;;;;2.23;2.10;;;;;;;27.67;66.86;93587.69;5008679;28;20220;-84
2021/10/31 08:23:31;;;;;;;3.67;2.47;;;;;;;28.27;67.04;93528.81;5003702;28;20208;-83
2021/10/31 08:26:01;;;;;;;2.60;2.40;;;;;;;28.48;66.01;93616.16;5022737;28;20197;-84
2021/10/31 08:28:31;;;;;;;2.67;2.47;;;;;;;28.96;65.88;93555.91;5008103;28;20215;-84
2021/10/31 08:30:58;;;;;;;4.07;2.60;;;;;;;29.30;65.30;93627.34;5006643;28;20232;-83
2021/10/31 08:33:31;;;;;;;3.03;2.70;;;;;;;29.36;64.68;93557.50;5007610;28;20205;-83
2021/10/31 08:35:57;;;;;;;3.00;2.70;;;;;;;29.19;64.12;93564.50;5009481;28;20730;-84
2021/10/31 08:38:23;;;;;;;4.27;3.10;;;;;;;28.67;63.88;93540.66;5006905;28;20208;-83
2021/10/31 08:40:51;;;;;;;5.63;4.80;;;;;;;28.15;63.66;93561.88;5024825;28;20213;-83
2021/10/31 08:43:17;;;;;;;3.53;3.30;;;;;;;28.39;63.34;93574.84;5023964;28;20255;-84
2021/10/31 08:45:47;;;;;;;3.63;3.20;;;;;;;28.54;62.83;93606.44;5022357;28;20208;-84
2021/10/31 08:48:13;;;;;;;4.10;3.70;;;;;;;28.33;62.10;93557.28;4992014;28;20251;-84
2021/10/31 08:50:42;;;;;;;4.10;3.80;;;;;;;28.45;62.06;93562.38;4988601;28;20220;-84
2021/10/31 08:53:13;;;;;;;4.10;3.80;;;;;;;28.72;61.60;93600.28;5025461;28;20207;-84
2021/10/31 08:55:40;;;;;;;4.43;4.10;;;;;;;28.59;60.89;93558.13;4995205;28;20573;-84
2021/10/31 08:58:07;;;;;;;4.10;3.80;;;;;;;28.62;60.71;93514.50;5017511;28;20204;-83
2021/10/31 09:00:33;;;;;;;5.90;4.50;;;;;;;28.94;60.24;93575.38;5016589;28;20236;-83
2021/10/31 09:02:59;;;;;;;4.20;3.90;;;;;;;30.12;59.83;93641.78;5020558;28;20321;-84
2021/10/31 09:05:25;;;;;;;4.63;4.23;;;;;;;31.09;59.35;93584.31;5021212;28;20757;-83
2021/10/31 09:07:50;;;;;;;4.57;4.17;;;;;;;31.51;59.05;93529.22;5009143;28;20208;-83
2021/10/31 09:10:18;;;;;;;5.73;5.03;;;;;;;31.98;58.29;93637.25;5004973;28;20225;-84
2021/10/31 09:12:44;;;;;;;5.90;5.33;;;;;;;32.01;58.50;93517.72;5002776;28;20217;-85
2021/10/31 09:15:10;;;;;;;4.20;3.90;;;;;;;32.10;57.23;93588.59;5004666;28;20225;-85
2021/10/31 09:17:35;;;;;;;4.60;4.10;;;;;;;33.57;56.85;93625.56;5016535;28;20326;-85
2021/10/31 09:20:04;;;;;;;5.30;4.50;;;;;;;34.11;56.75;93557.44;5020045;28;20204;-85
2021/10/31 09:22:31;;;;;;;6.67;5.67;;;;;;;33.80;55.93;93546.63;5021693;28;20213;-83
2021/10/31 09:24:57;;;;;;;4.17;3.73;;;;;;;34.54;55.67;93558.19;5006505;28;20221;-85
2021/10/31 09:27:22;;;;;;;4.38;3.97;;;;;;;35.13;55.36;93467.16;4991724;28;20213;-85
2021/10/31 09:29:48;;;;;;;3.90;3.60;;;;;;;35.59;54.38;93572.81;5009526;28;20224;-92
2021/10/31 09:32:13;;;;;;;3.83;3.58;;;;;;;35.47;53.87;93488.78;5024865;28;20209;-89
2021/10/31 09:34:38;;;;;;;4.10;3.70;;;;;;;35.02;53.74;93467.41;5008448;28;20297;-85
2021/10/31 09:37:06;;;;;;;5.03;3.97;;;;;;;35.44;52.83;93588.91;5007869;28;20256;-86
2021/10/31 09:39:34;;;;;;;4.22;3.90;;;;;;;34.29;52.73;93426.56;5025450;28;20217;-85
2021/10/31 09:42:02;;;;;;;4.35;3.90;;;;;;;33.95;52.15;93514.88;5026039;28;20240;-85
2021/10/31 09:44:33;;;;;;;4.37;3.93;;;;;;;34.41;51.29;93510.47;5013211;28;20280;-85
2021/10/31 09:47:01;;;;;;;5.00;4.13;;;;;;;34.49;50.90;93517.38;5015907;28;20217;-84
2021/10/31 09:49:27;;;;;;;4.03;3.70;;;;;;;35.62;50.77;93541.63;5014866;28;20293;-85
2021/10/31 09:51:53;;;;;;;4.25;3.85;;;;;;;36.06;50.11;93534.59;5000653;28;20236;-85
2021/10/31 09:54:19;;;;;;;4.20;3.80;;;;;;;36.34;49.98;93451.75;5012832;28;20209;-83
2021/10/31 09:56:48;;;;;;;4.20;3.90;;;;;;;37.94;49.22;93572.03;5011450;28;20232;-82
2021/10/31 09:59:18;;;;;;;4.00;3.63;;;;;;;38.58;48.66;93492.22;5029670;28;20295;-85
2021/10/31 10:02:12;;;;;;;3.90;3.65;;;;;;;38.85;48.03;93406.47;5013763;28;20266;-83
2021/10/31 10:04:49;;;;;;;3.97;3.67;;;;;;;38.70;46.96;93486.59;5015609;28;20220;-83
2021/10/31 10:07:15;;;;;;;3.92;3.63;;;;;;;39.17;47.05;93438.44;5027798;28;20203;-82
2021/10/31 10:09:50;;;;;;;4.00;3.70;;;;;;;38.25;46.65;93502.88;5009027;28;20239;-84
2021/10/31 10:12:19;;;;;;;5.18;3.30;;;;;;;39.07;45.96;93497.88;4999789;28;20253;-84
2021/10/31 10:15:05;;;;;;;3.70;3.40;;;;;;;40.55;45.48;93482.56;4993487;28;20215;-84
2021/10/31 10:18:00;;;;;;;4.00;3.30;;;;;;;41.23;44.73;93523.50;5009682;28;20204;-85
2021/10/31 10:20:25;;;;;;;4.05;3.67;;;;;;;41.42;44.07;93366.31;4989919;28;20725;-84
2021/10/31 10:23:10;;;;;;;4.07;3.67;;;;;;;40.66;43.33;93491.97;4975383;28;20323;-83
2021/10/31 10:25:45;;;;;;;3.70;3.40;;;;;;;41.18;42.74;93465.69;4975953;28;20313;-83
2021/10/31 10:28:24;;;;;;;3.83;3.42;;;;;;;40.60;42.46;93476.38;4972735;28;20240;-85
2021/10/31 10:30:49;;;;;;;3.47;3.17;;;;;;;42.10;42.13;93441.59;4993213;28;20220;-84
2021/10/31 10:33:23;;;;;;;3.28;3.08;;;;;;;42.49;41.21;93408.09;4973635;28;20336;-86
2021/10/31 10:36:12;;;;;;;3.60;3.30;;;;;;;42.77;40.79;93379.44;4992067;28;20205;-84
2021/10/31 10:38:37;;;;;;;3.53;3.33;;;;;;;41.73;40.42;93356.78;4956588;28;20268;-85
2021/10/31 10:41:05;;;;;;;3.97;3.40;;;;;;;41.66;40.02;93338.44;4979792;28;20779;-85
2021/10/31 10:43:32;;;;;;;3.70;3.50;;;;;;;41.56;39.73;93380.75;4988190;28;20273;-84
2021/10/31 10:46:12;;;;;;;3.45;3.25;;;;;;;41.90;38.99;93453.38;4993422;28;20767;-85
2021/10/31 10:49:11;;;;;;;3.42;3.17;;;;;;;42.97;37.99;93381.53;4989034;28;20205;-85
2021/10/31 10:51:37;;;;;;;3.80;3.20;;;;;;;42.59;37.84;93368.47;4923714;29;20743;-86
2021/10/31 10:54:13;;;;;;;3.55;3.22;;;;;;;42.56;37.22;93316.47;4932156;29;20218;-85
2021/10/31 10:57:04;;;;;;;3.63;3.33;;;;;;;43.00;36.94;93397.31;4920760;29;20218;-83
2021/10/31 10:59:30;;;;;;;3.47;3.17;;;;;;;42.83;36.69;93374.72;4933257;29;20239;-83
2021/10/31 11:02:16;;;;;;;4.78;3.42;;;;;;;43.85;36.38;93445.50;4949144;28;20265;-84
2021/10/31 11:04:50;;;;;;;4.00;3.60;;;;;;;44.33;35.89;93278.78;4949376;28;20548;-84
2021/10/31 11:07:15;;;;;;;12.77;4.15;;;;;;;44.28;35.11;93332.63;4953691;28;20221;-87
2021/10/31 11:09:47;;;;;;;3.83;3.22;;;;;;;44.36;34.58;93285.41;4944126;28;20273;-84
2021/10/31 11:12:25;;;;;;;3.50;3.30;;;;;;;44.87;34.25;93348.88;4937334;28;20293;-83
2021/10/31 11:14:52;;;;;;;3.55;3.35;;;;;;;44.93;33.91;93290.91;4962562;28;20290;-84
2021/10/31 11:17:18;;;;;;;3.50;3.30;;;;;;;44.91;33.29;93313.03;4936770;28;20357;-83
2021/10/31 11:19:44;;;;;;;4.55;3.70;;;;;;;45.08;33.22;93283.13;4932190;28;20737;-83
2021/10/31 11:22:11;;;;;;;3.60;3.40;;;;;;;45.00;32.92;93284.13;4938170;28;20292;-85
2021/10/31 11:24:37;;;;;;;3.88;3.67;;;;;;;45.46;32.74;93247.41;4950682;28;20222;-84
2021/10/31 11:27:03;;;;;;;3.88;3.53;;;;;;;45.15;31.92;93248.28;4988892;28;20235;-83
2021/10/31 11:29:31;;;;;;;3.75;3.55;;;;;;;44.72;31.74;93281.91;5008363;28;20236;-85
2021/10/31 11:32:03;;;;;;;4.38;3.70;;;;;;;44.75;31.79;93222.13;4993626;28;20309;-84
2021/10/31 11:34:31;;;;;;;4.13;3.83;;;;;;;44.21;31.68;93257.59;5023941;28;20301;-86
2021/10/31 11:36:59;;;;;;;4.38;3.97;;;;;;;44.37;31.11;93254.16;5010325;28;20216;-85
2021/10/31 11:39:24;;;;;;;4.75;4.35;;;;;;;43.62;31.03;93254.44;4991143;28;20749;-84
2021/10/31 11:41:50;;;;;;;4.18;3.78;;;;;;;43.88;30.50;93257.28;5021311;28;20205;-84
2021/10/31 11:44:16;;;;;;;4.38;4.03;;;;;;;44.02;30.26;93280.78;5009594;28;20303;-84
2021/10/31 11:46:43;;;;;;;4.90;4.43;;;;;;;43.51;30.25;93212.47;5007573;28;20366;-84